Time;durP1;ratioP1;P1;durP2;ratioP2;P2;SDS_P1;SDS_P2;PMS_P1;PMS_P2;Temp;Humidity;BMP_temperature;BMP_pressure;BME280_temperature;BME280_humidity;BME280_pressure;Samples;Min_cycle;Max_cycle;Signal;HPM_P1;HPM_P2
2023/05/03 00:00:44;;;;;;;11.20;4.50;;;;;;;;;;5071174;28;20082;-60
2023/05/03 00:03:12;;;;;;;8.45;3.80;;;;;;;;;;5070981;28;20107;-60
2023/05/03 00:05:38;;;;;;;13.43;4.63;;;;;;;;;;5070887;28;20082;-61
2023/05/03 00:08:04;;;;;;;13.32;3.95;;;;;;;;;;5071031;28;20036;-60
2023/05/03 00:10:30;;;;;;;15.55;4.93;;;;;;;;;;5070700;28;20025;-61
2023/05/03 00:12:56;;;;;;;10.95;5.13;;;;;;;;;;5070034;28;20040;-61
2023/05/03 00:15:22;;;;;;;12.20;4.30;;;;;;;;;;5070889;28;20032;-60
2023/05/03 00:17:48;;;;;;;7.28;3.78;;;;;;;;;;5070222;28;20073;-61
2023/05/03 00:20:14;;;;;;;9.02;3.95;;;;;;;;;;5070094;28;20040;-61
2023/05/03 00:22:40;;;;;;;11.85;5.18;;;;;;;;;;5069760;28;20145;-60
2023/05/03 00:25:09;;;;;;;13.00;4.57;;;;;;;;;;5070786;28;20037;-61
2023/05/03 00:27:35;;;;;;;16.92;4.55;;;;;;;;;;5073757;28;20035;-61
2023/05/03 00:30:01;;;;;;;13.82;4.70;;;;;;;;;;5073896;28;20039;-60
2023/05/03 00:32:27;;;;;;;12.48;4.88;;;;;;;;;;5073819;28;20089;-60
2023/05/03 00:34:56;;;;;;;13.55;5.00;;;;;;;;;;5073393;28;20487;-60
2023/05/03 00:37:23;;;;;;;8.98;4.05;;;;;;;;;;5089144;28;20033;-62
2023/05/03 00:39:49;;;;;;;12.55;5.18;;;;;;;;;;5074153;28;20103;-60
2023/05/03 00:42:15;;;;;;;12.45;4.65;;;;;;;;;;5073994;28;20048;-60
2023/05/03 00:44:41;;;;;;;13.88;4.88;;;;;;;;;;5074204;28;20108;-61
2023/05/03 00:47:08;;;;;;;11.82;4.65;;;;;;;;;;5073554;28;20032;-61
2023/05/03 00:49:34;;;;;;;13.00;4.53;;;;;;;;;;5073616;28;20055;-61
2023/05/03 00:52:01;;;;;;;11.10;4.40;;;;;;;;;;5073406;28;20028;-60
2023/05/03 00:54:27;;;;;;;14.45;5.30;;;;;;;;;;5072538;28;20116;-61
2023/05/03 00:56:55;;;;;;;10.27;4.80;;;;;;;;;;5073343;28;20025;-59
2023/05/03 00:59:21;;;;;;;13.50;5.05;;;;;;;;;;5073403;28;20025;-62
2023/05/03 01:01:51;;;;;;;16.73;5.65;;;;;;;;;;5070997;28;20044;-61
2023/05/03 01:04:19;;;;;;;18.13;5.85;;;;;;;;;;5073444;28;20477;-60
2023/05/03 01:06:50;;;;;;;15.18;5.35;;;;;;;;;;5074196;28;20024;-61
2023/05/03 01:09:25;;;;;;;8.88;5.15;;;;;;;;;;5072441;28;20025;-60
2023/05/03 01:11:51;;;;;;;11.75;5.07;;;;;;;;;;5073964;28;20575;-61
2023/05/03 01:14:40;;;;;;;15.30;5.43;;;;;;;;;;5071196;28;20040;-60
2023/05/03 01:17:11;;;;;;;14.55;5.32;;;;;;;;;;5072815;28;20040;-61
2023/05/03 01:19:41;;;;;;;11.13;5.60;;;;;;;;;;5069656;28;20025;-62
2023/05/03 01:22:21;;;;;;;13.18;4.93;;;;;;;;;;5073616;28;20045;-61
2023/05/03 01:24:54;;;;;;;13.27;5.00;;;;;;;;;;5073409;28;20017;-62
2023/05/03 01:27:20;;;;;;;14.50;5.15;;;;;;;;;;5072363;28;20137;-61
2023/05/03 01:29:46;;;;;;;13.77;6.05;;;;;;;;;;5073306;28;20197;-61
2023/05/03 01:32:20;;;;;;;13.00;5.00;;;;;;;;;;5073696;28;20032;-61
2023/05/03 01:34:51;;;;;;;11.10;5.43;;;;;;;;;;5073272;28;20013;-60
2023/05/03 01:37:18;;;;;;;12.55;4.78;;;;;;;;;;5072616;28;20067;-61
2023/05/03 01:39:45;;;;;;;11.00;5.13;;;;;;;;;;5073447;28;20029;-60
2023/05/03 01:42:11;;;;;;;12.98;5.07;;;;;;;;;;5072847;28;20073;-61
2023/05/03 01:44:38;;;;;;;14.80;5.15;;;;;;;;;;5072591;28;20032;-60
2023/05/03 01:47:04;;;;;;;10.70;4.88;;;;;;;;;;5072325;28;20515;-61
2023/05/03 01:49:30;;;;;;;15.77;5.63;;;;;;;;;;5072100;28;20035;-62
2023/05/03 01:51:56;;;;;;;14.32;5.50;;;;;;;;;;5073273;28;20028;-60
2023/05/03 01:54:22;;;;;;;14.27;4.35;;;;;;;;;;5070883;28;20033;-60
2023/05/03 01:56:48;;;;;;;10.63;4.93;;;;;;;;;;5072848;28;20079;-60
2023/05/03 01:59:14;;;;;;;9.48;4.60;;;;;;;;;;5072282;28;20619;-60
2023/05/03 02:01:40;;;;;;;17.83;6.05;;;;;;;;;;5072149;28;20123;-60
2023/05/03 02:04:06;;;;;;;11.82;4.95;;;;;;;;;;5071157;28;20154;-60
2023/05/03 02:06:32;;;;;;;10.55;4.95;;;;;;;;;;5071597;28;20021;-59
2023/05/03 02:08:58;;;;;;;13.93;5.30;;;;;;;;;;5071065;28;20021;-61
2023/05/03 02:11:25;;;;;;;12.65;5.70;;;;;;;;;;5071494;28;20028;-61
2023/05/03 02:13:51;;;;;;;15.00;4.95;;;;;;;;;;5070288;28;20115;-60
2023/05/03 02:16:17;;;;;;;12.57;5.25;;;;;;;;;;5070807;28;20693;-60
2023/05/03 02:18:43;;;;;;;10.80;5.32;;;;;;;;;;5071488;28;20024;-60
2023/05/03 02:21:10;;;;;;;13.05;5.75;;;;;;;;;;5072195;28;20051;-60
2023/05/03 02:23:36;;;;;;;15.52;5.80;;;;;;;;;;5071691;28;20033;-60
2023/05/03 02:26:02;;;;;;;16.30;5.57;;;;;;;;;;5071615;28;20066;-59
2023/05/03 02:28:28;;;;;;;13.30;5.20;;;;;;;;;;5071402;28;20184;-59
2023/05/03 02:30:54;;;;;;;14.07;5.47;;;;;;;;;;5071534;28;20173;-59
2023/05/03 02:33:21;;;;;;;12.82;4.95;;;;;;;;;;5070682;28;20035;-61
2023/05/03 02:35:47;;;;;;;14.82;5.32;;;;;;;;;;5069668;28;20041;-60
2023/05/03 02:38:13;;;;;;;16.10;5.50;;;;;;;;;;5071084;28;20020;-58
2023/05/03 02:40:39;;;;;;;12.75;5.45;;;;;;;;;;5071494;28;20035;-60
2023/05/03 02:43:05;;;;;;;10.63;5.13;;;;;;;;;;5071357;28;20051;-60
2023/05/03 02:45:31;;;;;;;11.43;5.43;;;;;;;;;;5069711;28;20035;-60
2023/05/03 02:47:58;;;;;;;15.23;5.75;;;;;;;;;;5070649;28;20036;-60
2023/05/03 02:50:24;;;;;;;14.30;5.88;;;;;;;;;;5071605;28;20035;-60
2023/05/03 02:52:50;;;;;;;18.35;5.93;;;;;;;;;;5071273;28;20505;-60
2023/05/03 02:55:16;;;;;;;14.70;5.80;;;;;;;;;;5072068;28;20024;-60
2023/05/03 02:57:42;;;;;;;18.20;5.93;;;;;;;;;;5070206;28;20087;-61
2023/05/03 03:00:09;;;;;;;15.60;6.00;;;;;;;;;;5071208;28;20033;-60
2023/05/03 03:02:35;;;;;;;9.43;5.00;;;;;;;;;;5070906;28;20044;-61
2023/05/03 03:05:01;;;;;;;14.45;6.35;;;;;;;;;;5069666;28;20104;-60
2023/05/03 03:07:27;;;;;;;17.35;5.93;;;;;;;;;;5069883;28;20098;-60
2023/05/03 03:09:54;;;;;;;14.55;5.65;;;;;;;;;;5071077;28;20021;-61
2023/05/03 03:12:20;;;;;;;14.10;6.03;;;;;;;;;;5070685;28;20111;-60
2023/05/03 03:14:46;;;;;;;17.15;6.72;;;;;;;;;;5070982;28;20033;-60
2023/05/03 03:17:12;;;;;;;16.15;5.93;;;;;;;;;;5067947;28;20396;-60
2023/05/03 03:19:38;;;;;;;14.68;5.88;;;;;;;;;;5070558;28;20029;-60
2023/05/03 03:22:04;;;;;;;17.27;6.20;;;;;;;;;;5069661;28;20032;-60
2023/05/03 03:24:30;;;;;;;18.13;6.30;;;;;;;;;;5071373;28;20025;-60
2023/05/03 03:26:56;;;;;;;14.10;6.72;;;;;;;;;;5069835;28;20143;-61
2023/05/03 03:29:23;;;;;;;15.98;6.35;;;;;;;;;;5071109;28;20131;-61
2023/05/03 03:31:49;;;;;;;18.17;7.10;;;;;;;;;;5071155;28;20485;-60
2023/05/03 03:34:15;;;;;;;19.30;6.55;;;;;;;;;;5071374;28;20028;-60
2023/05/03 03:36:41;;;;;;;15.88;7.78;;;;;;;;;;5071266;28;20023;-61
2023/05/03 03:39:07;;;;;;;20.20;7.65;;;;;;;;;;5071222;28;20103;-60
2023/05/03 03:41:33;;;;;;;19.55;7.40;;;;;;;;;;5071364;28;20129;-61
2023/05/03 03:43:59;;;;;;;17.70;6.72;;;;;;;;;;5070540;28;20056;-59
2023/05/03 03:46:25;;;;;;;15.40;7.07;;;;;;;;;;5069482;28;20457;-60
2023/05/03 03:48:51;;;;;;;18.08;7.10;;;;;;;;;;5070411;28;20029;-60
2023/05/03 03:51:17;;;;;;;18.52;7.88;;;;;;;;;;5070879;28;20028;-60
2023/05/03 03:53:43;;;;;;;19.52;8.00;;;;;;;;;;5069278;28;20055;-61
2023/05/03 03:56:09;;;;;;;17.88;7.22;;;;;;;;;;5070214;28;20380;-59
2023/05/03 03:58:35;;;;;;;15.82;6.72;;;;;;;;;;5070454;28;20037;-61
2023/05/03 04:01:01;;;;;;;20.73;6.97;;;;;;;;;;5070106;28;20105;-60
2023/05/03 04:03:27;;;;;;;15.52;6.68;;;;;;;;;;5074474;28;20043;-60
2023/05/03 04:05:53;;;;;;;18.95;7.55;;;;;;;;;;5073455;28;20025;-60
2023/05/03 04:08:19;;;;;;;16.13;6.35;;;;;;;;;;5074229;28;20031;-60
2023/05/03 04:10:45;;;;;;;21.88;7.57;;;;;;;;;;5074733;28;20029;-60
2023/05/03 04:13:11;;;;;;;18.63;7.72;;;;;;;;;;5074327;28;20162;-60
2023/05/03 04:15:37;;;;;;;23.52;7.47;;;;;;;;;;5074379;28;20548;-60
2023/05/03 04:18:04;;;;;;;18.70;7.72;;;;;;;;;;5073140;28;20167;-61
2023/05/03 04:20:31;;;;;;;15.45;6.78;;;;;;;;;;5073898;28;20036;-60
2023/05/03 04:22:58;;;;;;;16.88;6.65;;;;;;;;;;5074005;28;20044;-60
2023/05/03 04:25:24;;;;;;;13.68;6.75;;;;;;;;;;5074027;28;20129;-59
2023/05/03 04:27:50;;;;;;;14.27;7.35;;;;;;;;;;5072925;28;20020;-61
2023/05/03 04:30:17;;;;;;;18.23;8.05;;;;;;;;;;5072723;28;20579;-61
2023/05/03 04:32:43;;;;;;;19.25;6.80;;;;;;;;;;5074048;28;20103;-60
2023/05/03 04:35:11;;;;;;;18.52;6.95;;;;;;;;;;5073931;28;20033;-60
2023/05/03 04:37:37;;;;;;;19.25;6.85;;;;;;;;;;5073552;28;20035;-61
2023/05/03 04:40:06;;;;;;;14.20;6.22;;;;;;;;;;5074570;28;20016;-60
2023/05/03 04:42:32;;;;;;;21.50;7.47;;;;;;;;;;5072686;28;20063;-61
2023/05/03 04:44:58;;;;;;;11.48;6.50;;;;;;;;;;5074400;28;20082;-61
2023/05/03 04:47:24;;;;;;;16.65;6.95;;;;;;;;;;5071030;28;20024;-60
2023/05/03 04:49:50;;;;;;;13.82;7.03;;;;;;;;;;5074044;28;20103;-61
2023/05/03 04:52:16;;;;;;;15.35;6.75;;;;;;;;;;5073675;28;20027;-60
2023/05/03 04:54:44;;;;;;;16.63;6.82;;;;;;;;;;5074398;28;20381;-60
2023/05/03 04:57:10;;;;;;;19.83;7.07;;;;;;;;;;5072498;28;20028;-60
2023/05/03 04:59:36;;;;;;;27.67;7.82;;;;;;;;;;5074213;28;20035;-60
2023/05/03 05:02:02;;;;;;;19.75;7.43;;;;;;;;;;5071390;28;20097;-60
2023/05/03 05:04:28;;;;;;;17.92;7.10;;;;;;;;;;5073319;28;20112;-61
2023/05/03 05:06:54;;;;;;;15.80;7.05;;;;;;;;;;5073439;28;20035;-60
2023/05/03 05:09:21;;;;;;;21.52;7.60;;;;;;;;;;5074063;28;20023;-60
2023/05/03 05:11:48;;;;;;;17.88;6.53;;;;;;;;;;5073250;28;20158;-60
2023/05/03 05:14:14;;;;;;;16.48;6.80;;;;;;;;;;5071923;28;20389;-60
2023/05/03 05:16:40;;;;;;;16.10;6.90;;;;;;;;;;5071976;28;20031;-60
2023/05/03 05:19:06;;;;;;;13.07;5.88;;;;;;;;;;5073567;28;20029;-60
2023/05/03 05:21:44;;;;;;;14.05;6.35;;;;;;;;;;5073576;28;20029;-61
2023/05/03 05:24:10;;;;;;;17.17;6.13;;;;;;;;;;5073672;28;20113;-61
2023/05/03 05:26:36;;;;;;;17.30;6.45;;;;;;;;;;5073516;28;20377;-60
2023/05/03 05:29:02;;;;;;;19.92;7.28;;;;;;;;;;5072802;28;20144;-61
2023/05/03 05:31:29;;;;;;;22.50;8.10;;;;;;;;;;5072917;28;20035;-59
2023/05/03 05:33:55;;;;;;;22.95;7.97;;;;;;;;;;5073245;28;20029;-59
2023/05/03 05:36:21;;;;;;;14.43;7.40;;;;;;;;;;5072177;28;20028;-60
2023/05/03 05:38:47;;;;;;;16.70;6.82;;;;;;;;;;5073605;28;20043;-60
2023/05/03 05:41:13;;;;;;;14.57;6.90;;;;;;;;;;5070684;28;20041;-60
2023/05/03 05:43:39;;;;;;;15.75;7.28;;;;;;;;;;5072079;28;20044;-60
2023/05/03 05:46:05;;;;;;;18.40;7.47;;;;;;;;;;5073251;28;20429;-61
2023/05/03 05:48:31;;;;;;;20.63;7.30;;;;;;;;;;5070163;28;20085;-61
2023/05/03 05:50:57;;;;;;;13.88;6.90;;;;;;;;;;5072774;28;20115;-61
2023/05/03 05:53:23;;;;;;;18.42;6.95;;;;;;;;;;5073197;28;20109;-60
2023/05/03 05:55:50;;;;;;;16.23;7.18;;;;;;;;;;5071073;28;20052;-61
2023/05/03 05:58:16;;;;;;;23.10;7.80;;;;;;;;;;5072663;28;20031;-60
2023/05/03 06:00:42;;;;;;;18.92;7.28;;;;;;;;;;5072569;28;20020;-59
2023/05/03 06:03:08;;;;;;;21.73;8.70;;;;;;;;;;5072774;28;20033;-60
2023/05/03 06:05:34;;;;;;;23.17;8.02;;;;;;;;;;5071601;28;20025;-60
2023/05/03 06:08:00;;;;;;;16.83;7.85;;;;;;;;;;5072247;28;20048;-60
2023/05/03 06:10:26;;;;;;;22.23;8.50;;;;;;;;;;5070160;28;20031;-60
2023/05/03 06:12:52;;;;;;;22.77;8.48;;;;;;;;;;5071606;28;20545;-60
2023/05/03 06:15:18;;;;;;;26.13;8.98;;;;;;;;;;5070909;28;20111;-60
2023/05/03 06:17:44;;;;;;;19.85;9.07;;;;;;;;;;5072127;28;20477;-60
2023/05/03 06:20:10;;;;;;;21.42;8.82;;;;;;;;;;5067432;28;20039;-60
2023/05/03 06:22:37;;;;;;;19.70;8.13;;;;;;;;;;5067607;28;20149;-61
2023/05/03 06:25:03;;;;;;;18.95;8.73;;;;;;;;;;5061416;28;20029;-60
2023/05/03 06:27:29;;;;;;;17.20;8.15;;;;;;;;;;5066811;28;20108;-60
2023/05/03 06:29:56;;;;;;;24.83;8.80;;;;;;;;;;5071873;28;20316;-60
2023/05/03 06:32:23;;;;;;;19.92;8.88;;;;;;;;;;5064199;28;20021;-60
2023/05/03 06:34:49;;;;;;;29.45;9.98;;;;;;;;;;5059409;28;20017;-60
2023/05/03 06:37:15;;;;;;;19.38;9.10;;;;;;;;;;5068278;28;20089;-60
2023/05/03 06:39:42;;;;;;;25.92;10.38;;;;;;;;;;5072080;28;20108;-60
2023/05/03 06:42:08;;;;;;;20.20;8.77;;;;;;;;;;5071742;28;20423;-59
2023/05/03 06:44:34;;;;;;;25.63;8.85;;;;;;;;;;5069557;28;20485;-60
2023/05/03 06:47:00;;;;;;;25.20;10.15;;;;;;;;;;5071606;28;20417;-60
2023/05/03 06:49:26;;;;;;;22.27;10.65;;;;;;;;;;5073875;28;20047;-60
2023/05/03 06:51:52;;;;;;;31.20;11.70;;;;;;;;;;5071598;28;20050;-60
2023/05/03 06:54:19;;;;;;;22.77;10.00;;;;;;;;;;5072043;28;20024;-61
2023/05/03 06:56:45;;;;;;;23.52;9.93;;;;;;;;;;5071808;28;20505;-60
2023/05/03 06:59:11;;;;;;;24.48;9.93;;;;;;;;;;5071934;28;20020;-64
2023/05/03 07:01:37;;;;;;;22.60;9.70;;;;;;;;;;5071966;28;20086;-59
2023/05/03 07:04:03;;;;;;;23.15;9.27;;;;;;;;;;5067721;28;20495;-60
2023/05/03 07:06:30;;;;;;;26.10;9.80;;;;;;;;;;5071125;28;20036;-59
2023/05/03 07:08:56;;;;;;;24.08;10.15;;;;;;;;;;5071784;28;20020;-58
2023/05/03 07:11:22;;;;;;;23.48;9.95;;;;;;;;;;5070649;28;20028;-61
2023/05/03 07:13:51;;;;;;;20.63;9.45;;;;;;;;;;5071717;28;20374;-59
2023/05/03 07:16:17;;;;;;;28.08;10.65;;;;;;;;;;5071439;28;20021;-59
2023/05/03 07:18:43;;;;;;;22.67;9.70;;;;;;;;;;5071444;28;20113;-59
2023/05/03 07:21:09;;;;;;;24.25;9.20;;;;;;;;;;5069880;28;20371;-59
2023/05/03 07:23:35;;;;;;;24.48;9.73;;;;;;;;;;5071432;28;20473;-59
2023/05/03 07:26:02;;;;;;;25.98;9.20;;;;;;;;;;5071430;28;20116;-59
2023/05/03 07:28:28;;;;;;;22.23;9.15;;;;;;;;;;5071588;28;20044;-60
2023/05/03 07:30:54;;;;;;;21.25;10.02;;;;;;;;;;5071507;28;20066;-58
2023/05/03 07:33:20;;;;;;;20.48;8.48;;;;;;;;;;5071460;28;20389;-59
2023/05/03 07:35:47;;;;;;;20.80;8.13;;;;;;;;;;5070568;28;20028;-59
2023/05/03 07:38:13;;;;;;;22.17;9.88;;;;;;;;;;5070090;28;20039;-59
2023/05/03 07:40:40;;;;;;;21.48;8.57;;;;;;;;;;5071071;28;20021;-60
2023/05/03 07:43:08;;;;;;;27.48;9.88;;;;;;;;;;5071102;28;20060;-60
2023/05/03 07:45:35;;;;;;;22.35;8.20;;;;;;;;;;5070029;28;20489;-60
2023/05/03 07:48:01;;;;;;;18.73;9.15;;;;;;;;;;5071031;28;20032;-60
2023/05/03 07:50:27;;;;;;;23.40;8.80;;;;;;;;;;5070861;28;20020;-60
2023/05/03 07:52:53;;;;;;;18.85;8.25;;;;;;;;;;5069754;28;20017;-60
2023/05/03 07:55:19;;;;;;;21.52;9.02;;;;;;;;;;5071127;28;20035;-59
2023/05/03 07:57:45;;;;;;;21.27;9.05;;;;;;;;;;5071308;28;20508;-59
2023/05/03 08:00:12;;;;;;;22.83;8.80;;;;;;;;;;5071072;28;20031;-59
2023/05/03 08:02:38;;;;;;;23.25;9.80;;;;;;;;;;5070734;28;20044;-61
2023/05/03 08:05:05;;;;;;;21.45;8.88;;;;;;;;;;5070828;28;20502;-59
2023/05/03 08:07:31;;;;;;;18.55;8.35;;;;;;;;;;5070659;28;20035;-59
2023/05/03 08:09:58;;;;;;;21.92;8.25;;;;;;;;;;5069786;28;20031;-59
2023/05/03 08:12:27;;;;;;;23.25;7.57;;;;;;;;;;5071042;28;20028;-59
2023/05/03 08:14:54;;;;;;;18.63;8.63;;;;;;;;;;5070916;28;20028;-59
2023/05/03 08:17:21;;;;;;;21.58;8.77;;;;;;;;;;5071053;28;20144;-58
2023/05/03 08:19:47;;;;;;;16.70;8.25;;;;;;;;;;5070476;28;20036;-57
2023/05/03 08:22:13;;;;;;;19.02;8.25;;;;;;;;;;5070729;28;20036;-58
2023/05/03 08:24:41;;;;;;;21.35;7.72;;;;;;;;;;5070719;28;20021;-59
2023/05/03 08:27:08;;;;;;;17.92;7.30;;;;;;;;;;5069706;28;20079;-59
2023/05/03 08:29:36;;;;;;;18.20;7.43;;;;;;;;;;5070634;28;20040;-59
2023/05/03 08:32:03;;;;;;;13.07;7.20;;;;;;;;;;5070778;28;20060;-59
2023/05/03 08:34:29;;;;;;;14.90;7.22;;;;;;;;;;5070718;28;20031;-58
2023/05/03 08:36:56;;;;;;;16.25;7.32;;;;;;;;;;5070871;28;20028;-58
2023/05/03 08:39:23;;;;;;;15.82;7.53;;;;;;;;;;5071020;28;20508;-58
2023/05/03 08:41:50;;;;;;;14.85;6.90;;;;;;;;;;5069248;28;20037;-59
2023/05/03 08:44:21;;;;;;;13.52;6.93;;;;;;;;;;5070815;28;20024;-59
2023/05/03 08:46:47;;;;;;;16.42;6.50;;;;;;;;;;5070103;28;20403;-58
2023/05/03 08:49:14;;;;;;;16.98;7.40;;;;;;;;;;5074058;28;20051;-58
2023/05/03 08:51:41;;;;;;;12.52;7.15;;;;;;;;;;5074039;28;20031;-59
2023/05/03 08:54:07;;;;;;;17.67;7.60;;;;;;;;;;5073184;28;20029;-59
2023/05/03 08:56:39;;;;;;;16.40;7.63;;;;;;;;;;5074436;28;20058;-59
2023/05/03 08:59:08;;;;;;;14.80;7.75;;;;;;;;;;5073116;28;20100;-58
2023/05/03 09:01:40;;;;;;;16.42;7.20;;;;;;;;;;5074185;28;20056;-59
2023/05/03 09:04:07;;;;;;;17.48;7.30;;;;;;;;;;5072238;28;20024;-58
2023/05/03 09:06:33;;;;;;;17.55;7.90;;;;;;;;;;5068592;28;20025;-58
2023/05/03 09:09:00;;;;;;;15.32;7.43;;;;;;;;;;5074006;28;20459;-58
2023/05/03 09:11:30;;;;;;;25.10;9.15;;;;;;;;;;5074029;28;20031;-58
2023/05/03 09:14:07;;;;;;;16.50;7.72;;;;;;;;;;5073936;28;20051;-62
2023/05/03 09:16:34;;;;;;;17.30;7.82;;;;;;;;;;5073961;28;20469;-59
2023/05/03 09:19:01;;;;;;;16.25;7.65;;;;;;;;;;5073651;28;20329;-59
2023/05/03 09:21:28;;;;;;;15.25;7.63;;;;;;;;;;5073865;28;20113;-59
2023/05/03 09:23:54;;;;;;;20.58;8.27;;;;;;;;;;5072650;28;20117;-60
2023/05/03 09:26:34;;;;;;;19.52;8.40;;;;;;;;;;5073939;28;20025;-61
2023/05/03 09:29:04;;;;;;;15.90;7.50;;;;;;;;;;5072240;28;20047;-61
2023/05/03 09:31:32;;;;;;;15.00;7.43;;;;;;;;;;5073849;28;20103;-60
2023/05/03 09:33:58;;;;;;;18.98;8.18;;;;;;;;;;5073505;28;20565;-60
2023/05/03 09:36:26;;;;;;;17.42;8.05;;;;;;;;;;5073722;28;20029;-61
2023/05/03 09:38:52;;;;;;;19.17;8.23;;;;;;;;;;5073574;28;20016;-60
2023/05/03 09:41:27;;;;;;;15.25;7.30;;;;;;;;;;5072077;28;20033;-60
2023/05/03 09:43:55;;;;;;;23.33;7.70;;;;;;;;;;5073508;28;20021;-60
2023/05/03 09:46:23;;;;;;;14.52;8.48;;;;;;;;;;5073335;28;20036;-59
2023/05/03 09:48:53;;;;;;;18.02;8.20;;;;;;;;;;5073476;28;20458;-60
2023/05/03 09:51:19;;;;;;;17.27;8.23;;;;;;;;;;5073225;28;20029;-60
2023/05/03 09:53:45;;;;;;;18.13;7.63;;;;;;;;;;5071962;28;20104;-61
2023/05/03 09:56:11;;;;;;;17.63;8.05;;;;;;;;;;5073344;28;20063;-60
2023/05/03 09:58:38;;;;;;;17.02;8.20;;;;;;;;;;5070905;28;20079;-60
2023/05/03 10:01:04;;;;;;;16.20;7.38;;;;;;;;;;5071692;28;20033;-61
2023/05/03 10:03:33;;;;;;;20.27;8.23;;;;;;;;;;5073228;28;20024;-60
2023/05/03 10:06:02;;;;;;;18.77;7.38;;;;;;;;;;5071538;28;20030;-61
2023/05/03 10:08:38;;;;;;;15.68;7.57;;;;;;;;;;5071533;28;20038;-60
2023/05/03 10:11:04;;;;;;;21.58;8.40;;;;;;;;;;5072788;28;20036;-60
2023/05/03 10:13:30;;;;;;;19.30;8.80;;;;;;;;;;5072888;28;20120;-60
2023/05/03 10:16:02;;;;;;;14.55;8.00;;;;;;;;;;5071364;28;20028;-60
2023/05/03 10:18:31;;;;;;;19.38;7.68;;;;;;;;;;5072694;28;20115;-61
2023/05/03 10:21:09;;;;;;;21.27;8.27;;;;;;;;;;5072538;28;20036;-60
2023/05/03 10:23:35;;;;;;;15.73;8.77;;;;;;;;;;5072904;28;20037;-61
2023/05/03 10:26:08;;;;;;;15.63;8.23;;;;;;;;;;5072459;28;20017;-60
2023/05/03 10:28:34;;;;;;;18.38;8.63;;;;;;;;;;5072495;28;20467;-60
2023/05/03 10:31:01;;;;;;;18.35;7.65;;;;;;;;;;5071090;28;20028;-61
2023/05/03 10:33:27;;;;;;;16.00;7.30;;;;;;;;;;5072410;28;20146;-60
2023/05/03 10:35:54;;;;;;;13.45;7.72;;;;;;;;;;5072592;28;20107;-60
2023/05/03 10:38:24;;;;;;;13.20;7.25;;;;;;;;;;5072416;28;20161;-60
2023/05/03 10:40:50;;;;;;;15.50;7.15;;;;;;;;;;5072204;28;20021;-61
2023/05/03 10:43:29;;;;;;;14.80;7.80;;;;;;;;;;5072302;28;20040;-60
2023/05/03 10:46:21;;;;;;;16.33;7.68;;;;;;;;;;5067458;28;20031;-60
2023/05/03 10:49:07;;;;;;;13.52;7.03;;;;;;;;;;5055926;28;20603;-60
2023/05/03 10:51:35;;;;;;;13.02;6.68;;;;;;;;;;5071967;28;20103;-59
2023/05/03 10:54:01;;;;;;;14.10;7.13;;;;;;;;;;5070845;28;20239;-59
2023/05/03 10:56:27;;;;;;;12.77;6.50;;;;;;;;;;5071954;28;20021;-61
2023/05/03 10:58:57;;;;;;;14.18;6.45;;;;;;;;;;5071893;28;20504;-60
2023/05/03 11:01:24;;;;;;;12.63;6.90;;;;;;;;;;5072024;28;20556;-60
2023/05/03 11:03:50;;;;;;;10.93;6.63;;;;;;;;;;5071832;28;20033;-60
2023/05/03 11:06:30;;;;;;;9.65;6.30;;;;;;;;;;5071839;28;20388;-61
2023/05/03 11:08:56;;;;;;;13.60;7.30;;;;;;;;;;5071717;28;20035;-59
2023/05/03 11:11:22;;;;;;;13.75;6.18;;;;;;;;;;5070502;28;20503;-60
2023/05/03 11:13:50;;;;;;;13.18;6.15;;;;;;;;;;5071758;28;20032;-61
2023/05/03 11:16:16;;;;;;;13.98;6.78;;;;;;;;;;5071771;28;20497;-61
2023/05/03 11:18:42;;;;;;;11.68;6.55;;;;;;;;;;5071594;28;20031;-61
2023/05/03 11:21:10;;;;;;;11.68;5.72;;;;;;;;;;5071482;28;20024;-61
2023/05/03 11:23:38;;;;;;;16.48;7.07;;;;;;;;;;5071704;28;20105;-61
2023/05/03 11:26:07;;;;;;;16.95;6.70;;;;;;;;;;5071494;28;20377;-61
2023/05/03 11:28:33;;;;;;;15.88;6.63;;;;;;;;;;5070009;28;20044;-61
2023/05/03 11:31:00;;;;;;;13.73;6.25;;;;;;;;;;5071617;28;20070;-59
2023/05/03 11:33:29;;;;;;;12.50;6.25;;;;;;;;;;5071543;28;20028;-61
2023/05/03 11:35:56;;;;;;;13.60;6.75;;;;;;;;;;5071238;28;20033;-59
2023/05/03 11:38:22;;;;;;;10.95;6.53;;;;;;;;;;5071113;28;20020;-60
2023/05/03 11:40:48;;;;;;;10.40;6.47;;;;;;;;;;5071379;28;20111;-60
2023/05/03 11:43:14;;;;;;;9.77;6.30;;;;;;;;;;5071074;28;20481;-60
2023/05/03 11:45:44;;;;;;;11.55;6.38;;;;;;;;;;5070038;28;20040;-60
2023/05/03 11:48:14;;;;;;;10.52;6.32;;;;;;;;;;5071400;28;20058;-60
2023/05/03 11:50:53;;;;;;;15.55;6.75;;;;;;;;;;5070972;28;20025;-61
2023/05/03 11:53:19;;;;;;;12.50;7.13;;;;;;;;;;5071251;28;20055;-60
2023/05/03 11:55:46;;;;;;;13.43;6.30;;;;;;;;;;5069981;28;20023;-60
2023/05/03 11:58:26;;;;;;;11.80;6.40;;;;;;;;;;5071214;28;20225;-61
2023/05/03 12:00:53;;;;;;;12.85;7.22;;;;;;;;;;5069837;28;20024;-61
2023/05/03 12:03:29;;;;;;;17.73;6.82;;;;;;;;;;5070834;28;20039;-60
2023/05/03 12:05:55;;;;;;;16.88;7.10;;;;;;;;;;5071078;28;20111;-62
2023/05/03 12:08:22;;;;;;;15.13;7.20;;;;;;;;;;5071103;28;20055;-59
2023/05/03 12:10:49;;;;;;;13.93;7.30;;;;;;;;;;5070883;28;20029;-60
2023/05/03 12:13:15;;;;;;;14.50;6.80;;;;;;;;;;5071002;28;20029;-60
2023/05/03 12:15:44;;;;;;;13.82;6.82;;;;;;;;;;5068341;28;20171;-61
2023/05/03 12:18:11;;;;;;;14.30;7.10;;;;;;;;;;5071017;28;20025;-60
2023/05/03 12:20:38;;;;;;;14.18;7.68;;;;;;;;;;5070757;28;20481;-61
2023/05/03 12:23:07;;;;;;;13.45;7.38;;;;;;;;;;5073618;28;20388;-61
2023/05/03 12:25:35;;;;;;;13.00;6.80;;;;;;;;;;5074909;28;20055;-61
2023/05/03 12:28:02;;;;;;;16.15;6.95;;;;;;;;;;5074604;28;20508;-62
2023/05/03 12:30:28;;;;;;;12.85;7.25;;;;;;;;;;5074827;28;20669;-61
2023/05/03 12:32:54;;;;;;;14.60;7.85;;;;;;;;;;5073996;28;20123;-61
2023/05/03 12:35:21;;;;;;;12.93;8.23;;;;;;;;;;5073434;28;20086;-61
2023/05/03 12:37:48;;;;;;;11.55;6.53;;;;;;;;;;5074719;28;20039;-61
2023/05/03 12:40:15;;;;;;;14.68;7.25;;;;;;;;;;5074487;28;20025;-61
2023/05/03 12:42:41;;;;;;;11.88;7.25;;;;;;;;;;5074344;28;20459;-61
2023/05/03 12:45:07;;;;;;;15.73;7.03;;;;;;;;;;5074592;28;20025;-61
2023/05/03 12:47:35;;;;;;;13.18;7.82;;;;;;;;;;5074436;28;20028;-61
2023/05/03 12:50:02;;;;;;;14.00;7.82;;;;;;;;;;5073103;28;20016;-61
2023/05/03 12:52:30;;;;;;;13.95;7.32;;;;;;;;;;5074401;28;20571;-61
2023/05/03 12:54:56;;;;;;;15.35;7.55;;;;;;;;;;5074423;28;20031;-61
2023/05/03 12:57:22;;;;;;;13.82;8.13;;;;;;;;;;5074231;28;20024;-63
2023/05/03 12:59:52;;;;;;;11.75;7.72;;;;;;;;;;5074388;28;20036;-60
2023/05/03 13:02:18;;;;;;;14.07;8.27;;;;;;;;;;5072938;28;20090;-61
2023/05/03 13:04:44;;;;;;;18.08;7.93;;;;;;;;;;5074196;28;20025;-61
2023/05/03 13:07:13;;;;;;;14.35;8.55;;;;;;;;;;5072932;28;20622;-62
2023/05/03 13:09:39;;;;;;;16.90;7.43;;;;;;;;;;5074083;28;20115;-63
2023/05/03 13:12:05;;;;;;;13.32;8.00;;;;;;;;;;5074122;28;20025;-62
2023/05/03 13:14:32;;;;;;;11.90;7.55;;;;;;;;;;5073062;28;20017;-62
2023/05/03 13:16:59;;;;;;;12.40;7.00;;;;;;;;;;5073938;28;20028;-61
2023/05/03 13:19:26;;;;;;;15.68;7.65;;;;;;;;;;5073977;28;20028;-62
2023/05/03 13:21:53;;;;;;;16.70;7.65;;;;;;;;;;5073792;28;20067;-62
2023/05/03 13:24:19;;;;;;;21.73;8.82;;;;;;;;;;5072583;28;20128;-61
2023/05/03 13:26:45;;;;;;;15.00;8.88;;;;;;;;;;5074079;28;20017;-62
2023/05/03 13:29:11;;;;;;;15.88;9.73;;;;;;;;;;5073566;28;20052;-62
2023/05/03 13:31:37;;;;;;;18.05;10.02;;;;;;;;;;5073744;28;20396;-61
2023/05/03 13:34:03;;;;;;;16.02;8.98;;;;;;;;;;5070971;28;20435;-61
2023/05/03 13:36:32;;;;;;;13.43;8.68;;;;;;;;;;5073711;28;20393;-62
2023/05/03 13:38:58;;;;;;;12.70;8.60;;;;;;;;;;5072236;28;20056;-62
2023/05/03 13:41:24;;;;;;;12.50;7.10;;;;;;;;;;5073427;28;20067;-61
2023/05/03 13:43:51;;;;;;;14.20;7.95;;;;;;;;;;5073447;28;20028;-61
2023/05/03 13:46:18;;;;;;;15.50;9.52;;;;;;;;;;5073348;28;20044;-62
2023/05/03 13:48:44;;;;;;;14.48;9.02;;;;;;;;;;5073419;28;20497;-62
2023/05/03 13:51:13;;;;;;;15.43;9.32;;;;;;;;;;5073334;28;20032;-62
2023/05/03 13:53:39;;;;;;;18.50;9.88;;;;;;;;;;5071781;28;20036;-62
2023/05/03 13:56:06;;;;;;;15.45;9.75;;;;;;;;;;5072115;28;20059;-63
2023/05/03 13:58:36;;;;;;;14.43;9.80;;;;;;;;;;5073321;28;20111;-62
2023/05/03 14:01:02;;;;;;;15.27;10.05;;;;;;;;;;5073196;28;20016;-62
2023/05/03 14:03:28;;;;;;;17.10;9.30;;;;;;;;;;5073061;28;20031;-62
2023/05/03 14:05:54;;;;;;;18.33;9.57;;;;;;;;;;5072916;28;20483;-61
2023/05/03 14:08:20;;;;;;;13.70;9.82;;;;;;;;;;5072895;28;20033;-62
2023/05/03 14:10:46;;;;;;;17.63;9.82;;;;;;;;;;5071700;28;20031;-61
2023/05/03 14:13:12;;;;;;;15.02;9.02;;;;;;;;;;5072926;28;20060;-61
2023/05/03 14:15:39;;;;;;;15.90;9.23;;;;;;;;;;5072836;28;20063;-62
2023/05/03 14:18:07;;;;;;;15.05;8.88;;;;;;;;;;5072641;28;20029;-62
2023/05/03 14:20:33;;;;;;;15.25;9.00;;;;;;;;;;5072277;28;20454;-62
2023/05/03 14:22:59;;;;;;;18.73;9.95;;;;;;;;;;5072618;28;20032;-61
2023/05/03 14:25:29;;;;;;;14.13;9.05;;;;;;;;;;5072757;28;20100;-61
2023/05/03 14:27:55;;;;;;;17.27;9.77;;;;;;;;;;5071370;28;20025;-61
2023/05/03 14:30:22;;;;;;;17.20;9.98;;;;;;;;;;5072401;28;20140;-61